createdAt,value
2019-03-23T04:49:17.703Z,0.60
2019-03-23T04:51:47.420Z,0.60
2019-03-23T04:54:17.151Z,0.60
2019-03-23T04:56:46.896Z,0.60
2019-03-23T04:59:16.727Z,0.50
2019-03-23T05:01:46.427Z,0.50
2019-03-23T05:04:16.147Z,0.50
2019-03-23T05:06:47.931Z,0.50
2019-03-23T05:09:17.738Z,0.50
2019-03-23T05:11:47.573Z,0.50
2019-03-23T05:14:17.367Z,0.50
2019-03-23T05:16:47.270Z,0.60
2019-03-23T05:19:16.954Z,0.60
2019-03-23T05:21:48.535Z,0.60
2019-03-23T05:24:18.381Z,0.60
2019-03-23T05:26:48.616Z,0.60
2019-03-23T05:29:18.369Z,0.70
2019-03-23T05:31:48.293Z,0.60
2019-03-23T05:34:19.508Z,0.60
2019-03-23T05:36:49.256Z,0.60
2019-03-23T05:39:19.040Z,0.70
2019-03-23T05:41:48.776Z,0.70
2019-03-23T05:44:18.634Z,0.70
2019-03-23T05:46:48.281Z,0.80
2019-03-23T05:49:17.991Z,0.80
2019-03-23T05:51:47.834Z,0.80
2019-03-23T05:54:17.557Z,0.90
2019-03-23T05:56:47.309Z,1.00
2019-03-23T05:59:17.269Z,1.00
2019-03-23T06:01:47.048Z,1.10
2019-03-23T06:04:16.877Z,1.20
2019-03-23T06:06:49.484Z,1.30
2019-03-23T06:09:21.339Z,1.30
2019-03-23T06:11:51.189Z,1.40
2019-03-23T06:14:21.245Z,1.50
2019-03-23T06:16:51.275Z,1.60
2019-03-23T06:19:21.063Z,1.70
2019-03-23T06:21:50.821Z,1.90
2019-03-23T06:24:20.531Z,2.50
2019-03-23T06:26:50.501Z,2.80
2019-03-23T06:29:21.375Z,2.80
2019-03-23T06:31:53.324Z,2.90
2019-03-23T06:34:23.200Z,3.00
2019-03-23T06:36:53.062Z,3.10
2019-03-23T06:39:22.788Z,3.20
2019-03-23T06:41:53.988Z,3.40
2019-03-23T06:44:23.815Z,3.50
2019-03-23T06:46:53.652Z,3.60
2019-03-23T06:49:23.648Z,3.80
2019-03-23T06:51:53.412Z,4.10
2019-03-23T06:54:23.136Z,4.30
2019-03-23T06:56:52.882Z,4.60
2019-03-23T06:59:24.731Z,5.10
2019-03-23T07:01:54.869Z,5.80
2019-03-23T07:04:26.759Z,6.80
2019-03-23T07:06:55.965Z,8.20
2019-03-23T07:09:25.743Z,9.50
2019-03-23T07:11:55.426Z,10.10
2019-03-23T07:14:25.168Z,11.10
2019-03-23T07:16:54.827Z,12.20
2019-03-23T07:19:24.687Z,13.90
2019-03-23T07:21:54.626Z,14.00
2019-03-23T07:24:24.405Z,14.50
2019-03-23T07:26:54.134Z,15.00
2019-03-23T07:29:23.851Z,15.30
2019-03-23T07:31:54.040Z,16.40
2019-03-23T07:34:23.727Z,16.00
2019-03-23T07:36:53.501Z,16.10
2019-03-23T07:39:28.134Z,16.00
2019-03-23T07:41:54.847Z,17.10
2019-03-23T07:44:24.634Z,18.40
2019-03-23T07:46:54.343Z,18.90
2019-03-23T07:49:24.062Z,19.80
2019-03-23T07:51:53.736Z,20.30
2019-03-23T07:54:23.460Z,21.20
2019-03-23T07:56:54.225Z,21.20
2019-03-23T07:59:23.931Z,21.40
2019-03-23T08:01:53.691Z,21.60
2019-03-23T08:04:23.397Z,21.80
2019-03-23T08:06:53.667Z,22.00
2019-03-23T08:12:12.335Z,22.30
2019-03-23T08:14:42.091Z,22.20
2019-03-23T08:17:11.763Z,22.60
2019-03-23T08:19:41.510Z,22.50
2019-03-23T08:22:16.253Z,21.70
2019-03-23T08:24:45.999Z,21.60
2019-03-23T08:27:15.735Z,21.80
2019-03-23T08:29:45.497Z,22.60
2019-03-23T08:32:15.645Z,22.80
2019-03-23T08:34:45.359Z,22.60
2019-03-23T08:37:15.344Z,23.50
2019-03-23T08:39:48.755Z,24.00
2019-03-23T08:42:19.875Z,23.40
2019-03-23T08:44:49.677Z,23.00
2019-03-23T08:47:22.310Z,23.70
2019-03-23T08:49:52.052Z,23.40
2019-03-23T08:52:21.807Z,24.10
2019-03-23T08:54:51.608Z,24.00
2019-03-23T08:57:21.447Z,24.00
2019-03-23T08:59:51.234Z,24.10
2019-03-23T09:02:23.859Z,23.90
2019-03-23T09:04:53.668Z,22.40
2019-03-23T09:07:23.837Z,23.00
2019-03-23T09:09:59.113Z,22.70
2019-03-23T09:12:25.115Z,23.30
2019-03-23T09:14:54.908Z,24.80
2019-03-23T09:17:24.638Z,24.60
2019-03-23T09:19:54.744Z,24.30
2019-03-23T09:22:24.841Z,24.40
2019-03-23T09:24:56.909Z,25.00
2019-03-23T09:27:25.992Z,24.60
2019-03-23T09:29:57.380Z,25.20
2019-03-23T09:32:27.065Z,24.60
2019-03-23T09:34:56.784Z,25.10
2019-03-23T09:37:26.494Z,25.40
2019-03-23T09:39:58.635Z,25.20
2019-03-23T09:42:27.976Z,24.20
2019-03-23T09:45:00.513Z,24.20
2019-03-23T09:47:30.407Z,26.00
2019-03-23T09:50:00.118Z,25.50
2019-03-23T09:52:32.610Z,26.30
2019-03-23T09:55:02.332Z,26.50
2019-03-23T09:57:38.388Z,26.00
2019-03-23T10:00:09.619Z,26.00
2019-03-23T10:02:39.318Z,26.00
2019-03-23T10:05:09.920Z,25.10
2019-03-23T10:07:39.706Z,25.70
2019-03-23T10:10:21.012Z,25.90
2019-03-23T10:12:41.994Z,25.50
2019-03-23T10:15:12.158Z,26.30
2019-03-23T10:17:41.920Z,26.10
2019-03-23T10:20:11.700Z,26.90
2019-03-23T10:22:41.416Z,26.70
2019-03-23T10:25:11.675Z,26.00
2019-03-23T10:27:41.343Z,25.60
2019-03-23T10:30:11.863Z,25.80
2019-03-23T10:32:41.807Z,26.30
2019-03-23T10:35:12.189Z,26.50
2019-03-23T10:37:43.523Z,26.40
2019-03-23T10:40:13.924Z,26.50
2019-03-23T10:42:43.655Z,25.90
2019-03-23T10:45:14.428Z,26.50
2019-03-23T10:47:44.365Z,26.50
2019-03-23T10:50:14.586Z,26.10
2019-03-23T10:52:44.534Z,25.80
2019-03-23T10:55:14.296Z,26.40
2019-03-23T10:57:44.306Z,26.80
2019-03-23T11:00:14.639Z,26.60
2019-03-23T11:02:44.506Z,26.60
2019-03-23T11:05:14.687Z,27.10
2019-03-23T11:07:44.562Z,26.40
2019-03-23T11:10:14.376Z,25.80
2019-03-23T11:12:44.053Z,25.60
2019-03-23T11:15:13.772Z,25.70
2019-03-23T11:17:43.648Z,25.50
2019-03-23T11:20:13.990Z,25.00
2019-03-23T11:22:43.688Z,25.30
2019-03-23T11:25:13.389Z,25.00
2019-03-23T11:27:43.095Z,24.40
2019-03-23T11:30:13.336Z,24.20
2019-03-23T11:32:43.225Z,24.10
2019-03-23T11:35:16.074Z,23.00
2019-03-23T11:37:46.693Z,22.80
2019-03-23T11:40:16.835Z,22.90
2019-03-23T11:42:50.243Z,23.00
2019-03-23T11:45:17.961Z,22.90
2019-03-23T11:59:35.155Z,22.80
2019-03-23T12:02:06.314Z,21.60
2019-03-23T12:04:35.996Z,21.90
2019-03-23T12:07:05.779Z,21.20
2019-03-23T12:09:35.606Z,21.00
2019-03-23T12:12:05.968Z,21.50
2019-03-23T12:14:36.204Z,21.80
2019-03-23T12:17:05.900Z,21.50
2019-03-23T12:19:35.588Z,21.50
2019-03-23T12:22:05.804Z,21.40
2019-03-23T12:24:37.620Z,21.30
2019-03-23T12:27:07.304Z,21.40
2019-03-23T12:29:37.108Z,21.40
2019-03-23T12:32:06.887Z,21.30
2019-03-23T12:34:36.672Z,21.30
2019-03-23T12:37:06.468Z,21.20
2019-03-23T12:39:38.297Z,20.70
2019-03-23T12:42:08.035Z,20.80
2019-03-23T12:44:37.753Z,20.90
2019-03-23T12:47:07.482Z,20.80
2019-03-23T12:49:40.197Z,20.70
2019-03-23T12:52:09.904Z,20.70
2019-03-23T12:54:39.585Z,20.90
2019-03-23T12:57:09.468Z,20.90
2019-03-23T12:59:39.357Z,21.00
2019-03-23T13:02:09.253Z,21.00
2019-03-23T13:04:39.051Z,20.70
2019-03-23T13:07:08.904Z,20.80
2019-03-23T13:09:38.595Z,20.90
2019-03-23T13:12:08.327Z,20.90
2019-03-23T13:14:38.078Z,20.70
2019-03-23T13:17:08.306Z,20.70
2019-03-23T13:19:40.846Z,20.80
2019-03-23T13:22:10.580Z,20.80
2019-03-23T13:24:40.624Z,20.80
2019-03-23T13:27:10.595Z,20.70
2019-03-23T13:29:40.369Z,20.70
2019-03-23T13:32:10.150Z,20.60
2019-03-23T13:34:39.945Z,20.70
2019-03-23T13:37:09.730Z,20.80
2019-03-23T13:39:39.471Z,21.00
2019-03-23T13:42:09.235Z,20.60
2019-03-23T13:44:39.015Z,20.50
2019-03-23T13:47:08.875Z,20.70
2019-03-23T13:49:39.665Z,20.70
2019-03-23T13:52:09.426Z,20.40
2019-03-23T13:54:39.209Z,20.40
2019-03-23T13:57:10.118Z,20.40
2019-03-23T13:59:39.916Z,20.30
2019-03-23T14:02:10.371Z,20.50
2019-03-23T14:04:41.248Z,20.60
2019-03-23T14:07:10.944Z,20.60
2019-03-23T14:09:40.667Z,20.50
2019-03-23T14:12:10.752Z,20.40
2019-03-23T14:14:40.454Z,20.20
2019-03-23T14:17:10.200Z,20.00
2019-03-23T14:19:42.563Z,20.00
2019-03-23T14:22:12.961Z,19.90
2019-03-23T14:24:42.695Z,20.00
2019-03-23T14:27:12.515Z,20.00
2019-03-23T14:29:42.228Z,20.10
2019-03-23T14:32:11.989Z,19.80
2019-03-23T14:34:41.760Z,19.80
2019-03-23T14:37:12.032Z,20.00
2019-03-23T14:39:41.798Z,20.00
2019-03-23T14:42:11.483Z,19.90
2019-03-23T14:44:44.867Z,19.80
2019-03-23T14:47:14.541Z,19.70
2019-03-23T14:49:44.509Z,19.90
2019-03-23T14:52:14.326Z,19.80
2019-03-23T14:54:44.026Z,19.50
2019-03-23T14:57:13.826Z,19.60
2019-03-23T14:59:45.604Z,19.70
2019-03-23T15:02:18.929Z,19.60
2019-03-23T15:04:50.964Z,19.50
2019-03-23T15:07:20.940Z,19.40
2019-03-23T15:09:50.733Z,19.40
2019-03-23T15:12:20.401Z,19.40
2019-03-23T15:14:50.344Z,19.40
2019-03-23T15:17:20.034Z,19.30
2019-03-23T15:19:52.914Z,19.20
2019-03-23T15:22:25.790Z,19.00
2019-03-23T15:24:55.875Z,19.10
2019-03-23T15:27:25.684Z,19.20
2019-03-23T15:29:55.431Z,19.10
2019-03-23T15:32:25.125Z,19.00
2019-03-23T15:34:54.801Z,18.90
2019-03-23T15:37:25.817Z,18.90
2019-03-23T15:39:55.534Z,18.90
2019-03-23T15:42:25.289Z,18.90
2019-03-23T15:44:55.145Z,18.80
2019-03-23T15:47:24.835Z,18.60
2019-03-23T15:49:54.508Z,18.50
2019-03-23T15:52:24.212Z,18.50
2019-03-23T15:54:54.523Z,18.40
2019-03-23T15:57:24.225Z,18.40
2019-03-23T15:59:53.894Z,18.40
2019-03-23T16:02:23.673Z,18.40
2019-03-23T16:04:54.127Z,18.40
2019-03-23T16:07:29.496Z,18.50
2019-03-23T16:09:55.363Z,18.50
2019-03-23T16:12:34.773Z,18.50
2019-03-23T16:14:59.315Z,18.30
2019-03-23T16:17:29.048Z,18.50
2019-03-23T16:19:58.747Z,18.50
2019-03-23T16:22:28.541Z,18.50
2019-03-23T16:24:58.540Z,18.40
2019-03-23T16:27:28.372Z,18.20
2019-03-23T16:29:58.191Z,18.10
2019-03-23T16:32:27.955Z,18.00
2019-03-23T16:34:57.653Z,18.00
2019-03-23T16:37:27.388Z,17.90
2019-03-23T16:40:00.911Z,17.90
2019-03-23T16:42:30.664Z,17.70
2019-03-23T16:45:03.778Z,17.60
2019-03-23T16:47:33.519Z,17.60
2019-03-23T16:50:03.217Z,17.60
2019-03-23T16:52:32.961Z,17.40
2019-03-23T16:55:02.882Z,17.40
2019-03-23T16:57:32.687Z,17.20
2019-03-23T17:00:02.402Z,17.20
2019-03-23T17:02:32.253Z,17.10
2019-03-23T17:05:01.982Z,17.10
2019-03-23T17:07:31.764Z,17.00
2019-03-23T17:10:01.585Z,16.90
2019-03-23T17:12:31.287Z,16.90
2019-03-23T17:15:01.375Z,16.80
2019-03-23T17:17:31.140Z,16.60
2019-03-23T17:20:00.939Z,16.40
2019-03-23T17:22:34.920Z,16.50
2019-03-23T17:25:05.663Z,16.30
2019-03-23T17:27:35.379Z,15.90
2019-03-23T17:30:07.764Z,15.60
2019-03-23T17:32:37.983Z,15.30
2019-03-23T17:35:07.910Z,15.40
2019-03-23T17:37:37.641Z,15.20
2019-03-23T17:40:08.588Z,14.90
2019-03-23T17:42:38.291Z,14.60
2019-03-23T17:45:08.470Z,14.30
2019-03-23T17:47:38.230Z,14.10
2019-03-23T17:50:08.388Z,13.80
2019-03-23T17:52:38.082Z,13.70
2019-03-23T17:55:07.936Z,13.40
2019-03-23T17:57:37.695Z,13.30
2019-03-23T18:00:09.179Z,13.10
2019-03-23T18:02:39.453Z,13.00
2019-03-23T18:05:12.096Z,13.00
2019-03-23T18:07:41.800Z,12.80
2019-03-23T18:10:12.218Z,12.70
2019-03-23T18:12:41.903Z,12.50
2019-03-23T18:15:14.644Z,12.40
2019-03-23T18:17:44.370Z,12.20
2019-03-23T18:20:14.594Z,12.10
2019-03-23T18:22:44.366Z,12.00
2019-03-23T18:25:15.136Z,11.80
2019-03-23T18:27:44.816Z,11.70
2019-03-23T18:30:35.436Z,11.50
2019-03-23T18:33:09.352Z,11.50
2019-03-23T18:35:41.497Z,11.30
2019-03-23T18:38:13.736Z,11.20
2019-03-23T18:40:43.560Z,11.10
2019-03-23T18:43:13.336Z,11.00
2019-03-23T18:45:43.011Z,10.90
2019-03-23T18:48:15.259Z,10.80
2019-03-23T18:50:47.189Z,10.70
2019-03-23T18:53:17.246Z,10.60
2019-03-23T18:55:48.959Z,10.60
2019-03-23T18:58:18.923Z,10.50
2019-03-23T19:00:48.757Z,10.40
2019-03-23T19:03:18.837Z,10.30
2019-03-23T19:05:48.650Z,10.20
2019-03-23T19:08:19.881Z,10.10
2019-03-23T19:10:49.605Z,10.00
2019-03-23T19:13:19.344Z,10.00
2019-03-23T19:15:49.109Z,9.90
2019-03-23T19:18:18.863Z,9.80
2019-03-23T19:20:48.652Z,9.80
2019-03-23T19:23:18.499Z,9.70
2019-03-23T19:25:48.487Z,9.70
2019-03-23T19:28:18.205Z,9.70
2019-03-23T19:30:48.121Z,9.60
2019-03-23T19:33:17.890Z,9.50
2019-03-23T19:35:47.865Z,9.50
2019-03-23T19:38:18.253Z,9.40
2019-03-23T19:40:48.144Z,9.40
2019-03-23T19:43:17.879Z,9.30
2019-03-23T19:45:47.981Z,9.20
2019-03-23T19:48:19.927Z,9.20
2019-03-23T19:50:49.732Z,9.10
2019-03-23T19:53:19.498Z,9.00
2019-03-23T19:55:49.248Z,8.90
2019-03-23T19:58:20.171Z,8.90
2019-03-23T20:00:49.956Z,8.80
2019-03-23T20:03:19.730Z,8.70
2019-03-23T20:05:49.491Z,8.70
2019-03-23T20:08:19.270Z,8.60
2019-03-23T20:10:49.009Z,8.50
2019-03-23T20:13:18.876Z,8.40
2019-03-23T20:15:48.597Z,8.30
2019-03-23T20:18:18.341Z,8.30
2019-03-23T20:20:48.189Z,8.20
2019-03-23T20:23:17.937Z,8.10
2019-03-23T20:25:47.964Z,8.10
2019-03-23T20:28:17.667Z,8.00
2019-03-23T20:30:47.467Z,8.00
2019-03-23T20:33:19.647Z,7.90
2019-03-23T20:35:48.771Z,7.80
2019-03-23T20:38:18.641Z,7.80
2019-03-23T20:40:48.701Z,7.70
2019-03-23T20:43:20.044Z,7.70
2019-03-23T20:45:49.779Z,7.60
2019-03-23T20:48:19.783Z,7.60
2019-03-23T20:50:50.265Z,7.60
2019-03-23T20:53:20.539Z,7.50
2019-03-23T20:55:50.278Z,7.50
2019-03-23T20:58:19.978Z,7.50
2019-03-23T21:00:49.800Z,7.40
2019-03-23T21:03:19.554Z,7.40
2019-03-23T21:05:49.238Z,7.40
2019-03-23T21:08:19.058Z,7.40
2019-03-23T21:10:48.788Z,7.50
2019-03-23T21:13:20.904Z,7.40
2019-03-23T21:15:50.563Z,7.40
2019-03-23T21:18:20.335Z,7.30
2019-03-23T21:20:50.086Z,7.30
2019-03-23T21:23:19.771Z,7.20
2019-03-23T21:25:51.239Z,7.20
2019-03-23T21:28:20.917Z,7.20
2019-03-23T21:30:50.617Z,7.10
2019-03-23T21:33:20.315Z,7.00
2019-03-23T21:35:50.182Z,7.00
2019-03-23T21:38:20.082Z,7.00
2019-03-23T21:40:49.891Z,7.00
2019-03-23T21:43:19.593Z,6.90
2019-03-23T21:45:49.360Z,6.90
2019-03-23T21:48:21.690Z,6.80
2019-03-23T21:50:51.780Z,6.80
2019-03-23T21:53:21.519Z,6.70
2019-03-23T21:55:51.234Z,6.70
2019-03-23T21:58:21.806Z,6.60
2019-03-23T22:00:51.526Z,6.60
2019-03-23T22:03:21.344Z,6.60
2019-03-23T22:05:51.246Z,6.50
2019-03-23T22:08:21.043Z,6.40
2019-03-23T22:10:50.785Z,6.40
2019-03-23T22:13:20.523Z,6.40
2019-03-23T22:15:53.237Z,6.30
2019-03-23T22:18:22.949Z,6.30
2019-03-23T22:20:53.116Z,6.30
2019-03-23T22:23:22.827Z,6.30
2019-03-23T22:25:52.782Z,6.20
2019-03-23T22:28:22.839Z,6.20
2019-03-23T22:30:56.288Z,6.10
2019-03-23T22:33:25.992Z,6.10
2019-03-23T22:35:55.744Z,6.00
2019-03-23T22:38:25.485Z,6.00
2019-03-23T22:40:55.815Z,6.00
2019-03-23T22:43:25.582Z,6.00
2019-03-23T22:45:55.308Z,5.90
2019-03-23T22:48:25.017Z,5.90
2019-03-23T22:50:54.713Z,5.80
2019-03-23T22:53:24.528Z,5.70
2019-03-23T22:55:55.426Z,5.70
2019-03-23T22:58:27.622Z,5.70
